Time;durP1;ratioP1;P1;durP2;ratioP2;P2;SDS_P1;SDS_P2;PMS_P1;PMS_P2;Temp;Humidity;BMP_temperature;BMP_pressure;BME280_temperature;BME280_humidity;BME280_pressure;Samples;Min_cycle;Max_cycle;Signal;HPM_P1;HPM_P2
2021/09/10 00:02:04;;;;;;;;;;;17.60;1.00;;;;;;5110428;28;20256;-72
2021/09/10 00:04:29;;;;;;;;;;;17.50;1.00;;;;;;5110877;28;19968;-72
2021/09/10 00:06:55;;;;;;;;;;;17.50;1.00;;;;;;5111636;28;19915;-72
2021/09/10 00:09:21;;;;;;;;;;;17.50;1.00;;;;;;5110933;28;19950;-72
2021/09/10 00:11:46;;;;;;;;;;;17.50;1.00;;;;;;5111027;28;19947;-72
2021/09/10 00:14:12;;;;;;;;;;;17.50;1.00;;;;;;5110270;28;19961;-72
2021/09/10 00:16:37;;;;;;;;;;;17.50;1.00;;;;;;5111025;28;19912;-72
2021/09/10 00:19:04;;;;;;;;;;;17.40;1.00;;;;;;5110563;28;19916;-72
2021/09/10 00:21:29;;;;;;;;;;;17.40;1.00;;;;;;5111142;28;20389;-72
2021/09/10 00:23:55;;;;;;;;;;;17.40;1.00;;;;;;5110229;28;19911;-72
2021/09/10 00:26:20;;;;;;;;;;;17.40;1.00;;;;;;5110841;28;19908;-72
2021/09/10 00:28:46;;;;;;;;;;;17.30;1.00;;;;;;5110065;28;19919;-71
2021/09/10 00:31:11;;;;;;;;;;;17.30;1.00;;;;;;5111188;28;19907;-72
2021/09/10 00:33:37;;;;;;;;;;;17.30;1.00;;;;;;5108715;28;20021;-72
2021/09/10 00:36:03;;;;;;;;;;;17.30;1.00;;;;;;5111018;28;19911;-71
2021/09/10 00:38:30;;;;;;;;;;;17.30;1.00;;;;;;5110734;28;19911;-72
2021/09/10 00:40:56;;;;;;;;;;;17.20;1.00;;;;;;5110875;28;19912;-71
2021/09/10 00:43:21;;;;;;;;;;;17.10;1.00;;;;;;5109623;28;19930;-71
2021/09/10 00:45:47;;;;;;;;;;;17.10;1.00;;;;;;5109643;28;19916;-72
2021/09/10 00:48:19;;;;;;;;;;;17.10;1.00;;;;;;5111040;28;19947;-72
2021/09/10 00:50:45;;;;;;;;;;;17.00;1.00;;;;;;5110223;28;19918;-72
2021/09/10 00:53:10;;;;;;;;;;;17.00;1.00;;;;;;5121039;27;20001;-72
2021/09/10 00:55:36;;;;;;;;;;;17.00;1.00;;;;;;5130233;27;19911;-72
2021/09/10 00:58:02;;;;;;;;;;;17.00;1.00;;;;;;5130679;27;20062;-71
2021/09/10 01:00:27;;;;;;;;;;;16.90;1.00;;;;;;5130726;27;20007;-72
2021/09/10 01:02:54;;;;;;;;;;;16.90;1.00;;;;;;5129812;27;19919;-72
2021/09/10 01:05:20;;;;;;;;;;;16.80;1.00;;;;;;5130576;27;19910;-72
2021/09/10 01:07:47;;;;;;;;;;;16.80;1.00;;;;;;5130555;27;20002;-72
2021/09/10 01:10:12;;;;;;;;;;;16.70;1.00;;;;;;5130736;27;19908;-72
2021/09/10 01:12:38;;;;;;;;;;;16.80;1.00;;;;;;5129492;27;20303;-71
2021/09/10 01:15:04;;;;;;;;;;;16.80;1.00;;;;;;5130442;27;19961;-72
2021/09/10 01:17:29;;;;;;;;;;;16.80;1.00;;;;;;5130096;27;19972;-72
2021/09/10 01:19:55;;;;;;;;;;;16.80;1.00;;;;;;5111619;27;19912;-72
2021/09/10 01:22:20;;;;;;;;;;;16.80;1.00;;;;;;5129785;27;20287;-72
2021/09/10 01:25:02;;;;;;;;;;;16.80;1.00;;;;;;5119146;27;19954;-72
2021/09/10 01:27:28;;;;;;;;;;;16.80;1.00;;;;;;5109581;28;19915;-72
2021/09/10 01:29:53;;;;;;;;;;;16.80;1.00;;;;;;5109050;28;19986;-72
2021/09/10 01:32:18;;;;;;;;;;;16.70;1.00;;;;;;5108640;28;19907;-72
2021/09/10 01:34:44;;;;;;;;;;;16.80;1.00;;;;;;5109614;28;19911;-72
2021/09/10 01:37:09;;;;;;;;;;;16.70;1.00;;;;;;5109865;28;19923;-72
2021/09/10 01:39:35;;;;;;;;;;;16.70;1.00;;;;;;5109591;28;19971;-72
2021/09/10 01:42:00;;;;;;;;;;;16.70;1.00;;;;;;5108980;28;19958;-72
2021/09/10 01:44:26;;;;;;;;;;;16.60;1.00;;;;;;5108150;28;19908;-72
2021/09/10 01:46:51;;;;;;;;;;;16.60;1.00;;;;;;5108954;28;19916;-72
2021/09/10 01:49:17;;;;;;;;;;;16.50;1.00;;;;;;5109467;28;19908;-72
2021/09/10 01:51:43;;;;;;;;;;;16.50;1.00;;;;;;5091825;28;20261;-73
2021/09/10 01:54:08;;;;;;;;;;;16.50;1.00;;;;;;5107518;28;19912;-73
2021/09/10 01:56:34;;;;;;;;;;;16.50;1.00;;;;;;5109671;28;19981;-72
2021/09/10 01:58:59;;;;;;;;;;;16.50;1.00;;;;;;5108743;28;20335;-72
2021/09/10 02:01:26;;;;;;;;;;;16.40;1.00;;;;;;5109205;28;19914;-72
2021/09/10 02:03:51;;;;;;;;;;;16.40;1.00;;;;;;5108552;28;19919;-72
2021/09/10 02:06:17;;;;;;;;;;;16.30;1.00;;;;;;5109540;28;19908;-72
2021/09/10 02:08:43;;;;;;;;;;;16.30;1.00;;;;;;5109706;28;19943;-73
2021/09/10 02:11:08;;;;;;;;;;;16.30;1.00;;;;;;5109914;28;19912;-72
2021/09/10 02:13:34;;;;;;;;;;;16.30;1.00;;;;;;5107920;28;19934;-72
2021/09/10 02:15:59;;;;;;;;;;;16.20;1.00;;;;;;5109194;28;19912;-72
2021/09/10 02:18:25;;;;;;;;;;;16.30;1.00;;;;;;5109348;28;19977;-72
2021/09/10 02:20:50;;;;;;;;;;;16.30;1.00;;;;;;5109361;28;19919;-72
2021/09/10 02:23:16;;;;;;;;;;;16.20;1.00;;;;;;5108508;28;19919;-72
2021/09/10 02:25:41;;;;;;;;;;;16.30;1.00;;;;;;5109365;28;20253;-72
2021/09/10 02:28:07;;;;;;;;;;;16.30;1.00;;;;;;5108868;28;19969;-72
2021/09/10 02:30:34;;;;;;;;;;;16.20;1.00;;;;;;5109064;28;19915;-72
2021/09/10 02:33:00;;;;;;;;;;;16.30;1.00;;;;;;5108245;28;19992;-72
2021/09/10 02:35:25;;;;;;;;;;;16.20;1.00;;;;;;5109011;28;19938;-72
2021/09/10 02:37:51;;;;;;;;;;;16.20;1.00;;;;;;5109122;28;19908;-72
2021/09/10 02:40:16;;;;;;;;;;;16.20;1.00;;;;;;5109110;28;19915;-72
2021/09/10 02:42:42;;;;;;;;;;;16.10;1.00;;;;;;5107937;28;19973;-72
2021/09/10 02:45:08;;;;;;;;;;;16.10;1.00;;;;;;5109180;28;20725;-72
2021/09/10 02:47:33;;;;;;;;;;;16.20;1.00;;;;;;5109831;28;20489;-72
2021/09/10 02:49:59;;;;;;;;;;;16.20;1.00;;;;;;5108690;28;19908;-72
2021/09/10 02:52:24;;;;;;;;;;;16.10;1.00;;;;;;5112295;28;19969;-72
2021/09/10 02:54:50;;;;;;;;;;;16.10;1.00;;;;;;5109359;28;19927;-72
2021/09/10 02:57:15;;;;;;;;;;;16.10;1.00;;;;;;5111571;28;20323;-72
2021/09/10 02:59:40;;;;;;;;;;;16.00;1.00;;;;;;5111989;28;20010;-72
2021/09/10 03:02:06;;;;;;;;;;;16.00;1.00;;;;;;5111802;28;19911;-72
2021/09/10 03:04:31;;;;;;;;;;;15.90;1.00;;;;;;5112087;28;19919;-72
2021/09/10 03:06:57;;;;;;;;;;;15.80;1.00;;;;;;5112814;28;20039;-72
2021/09/10 03:09:22;;;;;;;;;;;15.80;1.00;;;;;;5105803;28;19908;-72
2021/09/10 03:11:48;;;;;;;;;;;15.80;1.00;;;;;;5111108;28;19908;-72
2021/09/10 03:14:13;;;;;;;;;;;15.90;1.00;;;;;;5111319;28;19923;-71
2021/09/10 03:16:39;;;;;;;;;;;15.80;1.00;;;;;;5111907;28;19912;-72
2021/09/10 03:19:04;;;;;;;;;;;15.80;1.00;;;;;;5111819;28;20271;-71
2021/09/10 03:21:30;;;;;;;;;;;15.80;1.00;;;;;;5112281;28;19949;-72
2021/09/10 03:23:55;;;;;;;;;;;15.80;1.00;;;;;;5111524;28;19908;-71
2021/09/10 03:26:21;;;;;;;;;;;15.80;1.00;;;;;;5112481;28;19919;-71
2021/09/10 03:28:47;;;;;;;;;;;15.80;1.00;;;;;;5111370;28;19916;-72
2021/09/10 03:31:13;;;;;;;;;;;15.70;1.00;;;;;;5112143;28;19907;-72
2021/09/10 03:33:38;;;;;;;;;;;15.70;1.00;;;;;;5110870;28;20010;-72
2021/09/10 03:36:04;;;;;;;;;;;15.70;1.00;;;;;;5112369;28;19957;-72
2021/09/10 03:38:29;;;;;;;;;;;15.70;1.00;;;;;;5111887;28;20623;-72
2021/09/10 03:40:55;;;;;;;;;;;15.60;1.00;;;;;;5111873;28;19974;-72
2021/09/10 03:43:20;;;;;;;;;;;15.70;1.00;;;;;;5110854;28;19908;-72
2021/09/10 03:45:45;;;;;;;;;;;15.60;1.00;;;;;;5111140;28;19907;-72
2021/09/10 03:48:11;;;;;;;;;;;15.70;1.00;;;;;;5111822;28;19916;-72
2021/09/10 03:50:37;;;;;;;;;;;15.60;1.00;;;;;;5111604;28;20320;-72
2021/09/10 03:53:02;;;;;;;;;;;15.60;1.00;;;;;;5120555;27;19911;-72
2021/09/10 03:55:28;;;;;;;;;;;15.60;1.00;;;;;;5132371;27;19908;-72
2021/09/10 03:57:53;;;;;;;;;;;15.50;1.00;;;;;;5131839;27;19919;-72
2021/09/10 04:00:19;;;;;;;;;;;15.50;1.00;;;;;;5132077;27;20364;-72
2021/09/10 04:02:44;;;;;;;;;;;15.50;1.00;;;;;;5130724;27;19911;-72
2021/09/10 04:05:10;;;;;;;;;;;15.50;1.00;;;;;;5131994;27;19995;-72
2021/09/10 04:07:36;;;;;;;;;;;15.50;1.00;;;;;;5109399;27;19923;-72
2021/09/10 04:10:01;;;;;;;;;;;15.50;1.00;;;;;;5111527;28;19908;-72
2021/09/10 04:12:27;;;;;;;;;;;15.50;1.00;;;;;;5108885;28;19911;-72
2021/09/10 04:14:52;;;;;;;;;;;15.50;1.00;;;;;;5110637;28;20295;-72
2021/09/10 04:17:18;;;;;;;;;;;15.40;1.00;;;;;;5111321;28;20380;-72
2021/09/10 04:19:43;;;;;;;;;;;15.40;1.00;;;;;;5110697;28;19927;-72
2021/09/10 04:22:09;;;;;;;;;;;15.40;1.00;;;;;;5110445;28;19907;-72
2021/09/10 04:24:34;;;;;;;;;;;15.30;1.00;;;;;;5110911;28;19912;-72
2021/09/10 04:27:00;;;;;;;;;;;15.30;1.00;;;;;;5110445;28;19907;-72
2021/09/10 04:29:25;;;;;;;;;;;15.30;1.00;;;;;;5105490;28;19908;-72
2021/09/10 04:31:51;;;;;;;;;;;15.20;1.00;;;;;;5109394;28;19964;-72
2021/09/10 04:34:16;;;;;;;;;;;15.20;1.00;;;;;;5110297;28;19908;-72
2021/09/10 04:36:42;;;;;;;;;;;15.10;1.00;;;;;;5110507;28;19923;-72
2021/09/10 04:39:07;;;;;;;;;;;15.20;1.00;;;;;;5110076;28;19994;-72
2021/09/10 04:41:33;;;;;;;;;;;15.10;1.00;;;;;;5110621;28;20411;-72
2021/09/10 04:43:59;;;;;;;;;;;15.10;1.00;;;;;;5109628;28;20045;-72
2021/09/10 04:46:24;;;;;;;;;;;15.10;1.00;;;;;;5109975;28;19915;-72
2021/09/10 04:48:50;;;;;;;;;;;15.10;1.00;;;;;;5109589;28;19915;-73
2021/09/10 04:51:15;;;;;;;;;;;15.10;1.00;;;;;;5097992;28;19912;-71
2021/09/10 04:53:41;;;;;;;;;;;15.00;1.00;;;;;;5114772;27;19915;-73
2021/09/10 04:56:06;;;;;;;;;;;15.00;1.00;;;;;;5110515;28;19916;-73
2021/09/10 04:58:32;;;;;;;;;;;15.00;1.00;;;;;;5109355;28;19916;-71
2021/09/10 05:00:58;;;;;;;;;;;15.00;1.00;;;;;;5110049;28;19912;-73
2021/09/10 05:03:23;;;;;;;;;;;15.10;1.00;;;;;;5108437;28;20267;-71
2021/09/10 05:05:49;;;;;;;;;;;15.10;1.00;;;;;;5107800;28;20522;-73
2021/09/10 05:08:14;;;;;;;;;;;15.10;1.00;;;;;;5107679;28;19908;-69
2021/09/10 05:10:40;;;;;;;;;;;15.20;1.00;;;;;;5106481;28;20280;-70
2021/09/10 05:13:05;;;;;;;;;;;15.20;1.00;;;;;;5106725;28;19957;-69
2021/09/10 05:15:31;;;;;;;;;;;15.30;1.00;;;;;;5107147;28;19915;-72
2021/09/10 05:17:56;;;;;;;;;;;15.40;1.00;;;;;;5087256;28;19912;-73
2021/09/10 05:20:22;;;;;;;;;;;15.50;1.00;;;;;;5086639;28;20408;-74
2021/09/10 05:22:48;;;;;;;;;;;15.60;1.00;;;;;;5086376;28;19916;-71
2021/09/10 05:25:13;;;;;;;;;;;15.70;1.00;;;;;;5087584;28;19916;-71
2021/09/10 05:27:39;;;;;;;;;;;15.80;1.00;;;;;;5086318;28;19912;-72
2021/09/10 05:30:04;;;;;;;;;;;15.90;1.00;;;;;;5106396;28;19908;-71
2021/09/10 05:32:30;;;;;;;;;;;16.00;1.00;;;;;;5106735;28;19934;-74
2021/09/10 05:34:55;;;;;;;;;;;16.40;1.00;;;;;;5106574;28;19919;-72
2021/09/10 05:37:21;;;;;;;;;;;16.90;1.00;;;;;;5107199;28;19918;-72
2021/09/10 05:39:46;;;;;;;;;;;17.40;1.00;;;;;;5106461;28;19989;-72
2021/09/10 05:42:12;;;;;;;;;;;17.90;1.00;;;;;;5106576;28;19908;-73
2021/09/10 05:44:37;;;;;;;;;;;18.30;1.00;;;;;;5106406;28;19995;-75
2021/09/10 05:47:03;;;;;;;;;;;18.70;1.00;;;;;;5097628;28;20254;-70
2021/09/10 05:49:28;;;;;;;;;;;19.10;99.90;;;;;;5086156;28;19983;-73
2021/09/10 05:51:54;;;;;;;;;;;19.30;1.00;;;;;;5105554;28;19912;-71
2021/09/10 05:54:19;;;;;;;;;;;19.10;1.00;;;;;;5102110;28;20387;-71
2021/09/10 05:56:45;;;;;;;;;;;19.00;1.00;;;;;;5088956;28;19998;-73
2021/09/10 05:59:10;;;;;;;;;;;19.30;1.00;;;;;;5106029;28;19912;-73
2021/09/10 06:01:36;;;;;;;;;;;19.80;99.90;;;;;;5106591;28;19908;-70
2021/09/10 06:04:01;;;;;;;;;;;20.50;1.00;;;;;;5087180;28;20284;-69
2021/09/10 06:06:27;;;;;;;;;;;21.30;99.90;;;;;;5106615;28;19911;-73
2021/09/10 06:08:52;;;;;;;;;;;22.00;1.00;;;;;;5106639;28;19978;-71
2021/09/10 06:11:18;;;;;;;;;;;22.70;1.00;;;;;;5106864;28;19915;-73
2021/09/10 06:13:44;;;;;;;;;;;23.40;1.00;;;;;;5105144;28;20040;-72
2021/09/10 06:16:09;;;;;;;;;;;24.10;1.00;;;;;;5107127;28;19907;-71
2021/09/10 06:18:35;;;;;;;;;;;24.70;99.90;;;;;;5107008;28;19911;-72
2021/09/10 06:21:03;;;;;;;;;;;25.20;99.90;;;;;;5106985;28;20375;-71
2021/09/10 06:23:28;;;;;;;;;;;25.70;99.90;;;;;;5105875;28;19908;-72
2021/09/10 06:25:54;;;;;;;;;;;26.20;99.90;;;;;;5106773;28;19912;-72
2021/09/10 06:28:19;;;;;;;;;;;26.70;99.90;;;;;;5106344;28;19983;-72
2021/09/10 06:30:45;;;;;;;;;;;26.60;99.90;;;;;;5105980;28;20364;-73
2021/09/10 06:33:10;;;;;;;;;;;27.20;99.90;;;;;;5112676;28;19911;-72
2021/09/10 06:35:36;;;;;;;;;;;27.90;99.90;;;;;;5113015;28;19912;-72
2021/09/10 06:38:01;;;;;;;;;;;28.60;99.90;;;;;;5112911;28;19983;-72
2021/09/10 06:40:27;;;;;;;;;;;29.10;99.90;;;;;;5113045;28;19908;-72
2021/09/10 06:42:53;;;;;;;;;;;29.80;99.90;;;;;;5112187;28;20119;-73
2021/09/10 06:45:19;;;;;;;;;;;30.40;99.90;;;;;;5112803;28;19979;-73
2021/09/10 06:47:45;;;;;;;;;;;31.00;99.90;;;;;;5132135;22;19938;-71
2021/09/10 06:50:10;;;;;;;;;;;31.40;99.90;;;;;;5112402;28;20372;-71
2021/09/10 06:52:42;;;;;;;;;;;32.20;99.90;;;;;;5112041;28;19912;-71
2021/09/10 06:55:08;;;;;;;;;;;32.70;99.90;;;;;;5112824;28;19908;-71
2021/09/10 06:57:34;;;;;;;;;;;33.00;99.90;;;;;;5112730;28;19915;-72
2021/09/10 06:59:59;;;;;;;;;;;33.10;99.90;;;;;;5111882;28;19920;-71
2021/09/10 07:02:25;;;;;;;;;;;33.70;99.90;;;;;;5109720;28;20011;-71
2021/09/10 07:04:50;;;;;;;;;;;34.50;99.90;;;;;;5112543;28;20112;-70
2021/09/10 07:07:16;;;;;;;;;;;35.20;99.90;;;;;;5111724;28;19939;-70
2021/09/10 07:09:41;;;;;;;;;;;35.90;99.90;;;;;;5112732;28;20423;-70
2021/09/10 07:12:07;;;;;;;;;;;36.50;99.90;;;;;;5111686;28;20269;-70
2021/09/10 07:14:33;;;;;;;;;;;37.20;99.90;;;;;;5111507;28;19914;-72
2021/09/10 07:16:59;;;;;;;;;;;37.90;99.90;;;;;;5112216;28;19915;-72
2021/09/10 07:19:25;;;;;;;;;;;38.20;99.90;;;;;;5111853;28;20308;-72
2021/09/10 07:21:50;;;;;;;;;;;38.90;99.90;;;;;;5111964;28;20008;-71
2021/09/10 07:24:16;;;;;;;;;;;39.30;99.90;;;;;;5107725;28;20744;-70
2021/09/10 07:26:41;;;;;;;;;;;40.10;99.90;;;;;;5103285;28;19951;-71
2021/09/10 07:29:07;;;;;;;;;;;40.50;99.90;;;;;;5104592;28;19973;-70
2021/09/10 07:31:32;;;;;;;;;;;41.10;99.90;;;;;;5100307;28;20279;-72
2021/09/10 07:33:58;;;;;;;;;;;41.90;99.90;;;;;;5101428;28;20031;-71
2021/09/10 07:36:23;;;;;;;;;;;42.10;99.90;;;;;;5100028;28;19935;-71
2021/09/10 07:38:49;;;;;;;;;;;42.50;99.40;;;;;;5101706;28;20260;-70
2021/09/10 07:41:14;;;;;;;;;;;42.90;94.10;;;;;;5101835;28;19908;-71
2021/09/10 07:43:40;;;;;;;;;;;43.60;87.10;;;;;;5098335;28;19908;-71
2021/09/10 07:46:05;;;;;;;;;;;43.70;76.70;;;;;;5101061;28;19955;-71
2021/09/10 07:48:31;;;;;;;;;;;44.50;67.40;;;;;;5104568;27;19916;-71
2021/09/10 07:50:56;;;;;;;;;;;45.10;59.10;;;;;;5100098;28;19926;-73
2021/09/10 07:53:22;;;;;;;;;;;46.00;53.80;;;;;;5101040;28;20275;-71
2021/09/10 07:55:47;;;;;;;;;;;46.40;47.30;;;;;;5099842;28;20416;-71
2021/09/10 07:58:13;;;;;;;;;;;46.30;39.40;;;;;;5099606;28;19916;-71
2021/09/10 08:00:40;;;;;;;;;;;46.60;34.10;;;;;;5101208;28;19920;-71
2021/09/10 08:03:05;;;;;;;;;;;46.90;28.60;;;;;;5099176;28;19908;-71
2021/09/10 08:05:31;;;;;;;;;;;45.90;23.10;;;;;;5100031;28;19919;-70
2021/09/10 08:07:57;;;;;;;;;;;45.40;19.00;;;;;;5101023;28;20003;-71
2021/09/10 08:10:23;;;;;;;;;;;46.00;16.90;;;;;;5098943;28;19913;-71
2021/09/10 08:12:48;;;;;;;;;;;44.20;12.40;;;;;;5099405;28;19907;-70
2021/09/10 08:15:15;;;;;;;;;;;44.00;9.70;;;;;;5100411;28;19969;-71
2021/09/10 08:17:41;;;;;;;;;;;45.70;10.00;;;;;;5097991;28;20273;-71
2021/09/10 08:20:07;;;;;;;;;;;47.00;7.60;;;;;;5095045;28;19927;-71
2021/09/10 08:22:34;;;;;;;;;;;45.90;3.10;;;;;;5090589;28;19909;-70
2021/09/10 08:25:00;;;;;;;;;;;46.90;1.70;;;;;;5104269;28;19908;-71
2021/09/10 08:27:26;;;;;;;;;;;46.60;1.00;;;;;;5110740;28;19931;-71
2021/09/10 08:29:54;;;;;;;;;;;47.10;1.00;;;;;;5110575;28;20303;-72
2021/09/10 08:32:20;;;;;;;;;;;47.20;4.80;;;;;;5109983;28;19919;-71
2021/09/10 08:34:46;;;;;;;;;;;47.60;1.00;;;;;;5110646;28;20280;-71
2021/09/10 08:37:11;;;;;;;;;;;47.00;1.00;;;;;;5111111;28;20490;-71
2021/09/10 08:39:37;;;;;;;;;;;47.30;1.00;;;;;;5110949;28;19918;-71
2021/09/10 08:42:02;;;;;;;;;;;47.70;1.00;;;;;;5110558;28;19911;-71
2021/09/10 08:44:29;;;;;;;;;;;48.60;1.00;;;;;;5109846;28;19915;-71
2021/09/10 08:46:54;;;;;;;;;;;49.20;1.00;;;;;;5110589;28;19912;-72
2021/09/10 08:49:20;;;;;;;;;;;47.60;1.00;;;;;;5128830;27;20011;-71
2021/09/10 08:51:45;;;;;;;;;;;48.10;1.00;;;;;;5112451;27;19914;-70
2021/09/10 08:54:12;;;;;;;;;;;48.20;1.00;;;;;;5110026;28;19908;-71
2021/09/10 08:56:37;;;;;;;;;;;49.00;1.00;;;;;;5110682;28;20026;-72
2021/09/10 08:59:07;;;;;;;;;;;49.80;1.00;;;;;;5109793;28;20344;-72
2021/09/10 09:01:32;;;;;;;;;;;50.10;1.00;;;;;;5110759;28;19907;-71
2021/09/10 09:04:02;;;;;;;;;;;50.00;1.00;;;;;;5109665;28;19976;-73
2021/09/10 09:06:34;;;;;;;;;;;50.30;1.00;;;;;;5110876;28;20286;-71
2021/09/10 09:09:00;;;;;;;;;;;50.00;1.00;;;;;;5110420;28;19912;-72
2021/09/10 09:11:29;;;;;;;;;;;50.40;1.00;;;;;;5095818;28;20242;-73
2021/09/10 09:13:55;;;;;;;;;;;50.70;1.00;;;;;;5088515;28;19999;-72
2021/09/10 09:16:23;;;;;;;;;;;50.40;1.00;;;;;;5089681;28;19919;-70
2021/09/10 09:18:59;;;;;;;;;;;50.10;1.00;;;;;;5090014;28;20336;-72
2021/09/10 09:21:28;;;;;;;;;;;50.60;1.00;;;;;;5090461;28;19908;-72
2021/09/10 09:23:55;;;;;;;;;;;51.20;1.00;;;;;;5093106;28;20374;-73
2021/09/10 09:26:23;;;;;;;;;;;51.20;1.00;;;;;;5110651;28;19976;-73
2021/09/10 09:29:01;;;;;;;;;;;51.20;1.00;;;;;;5108975;28;19943;-72
2021/09/10 09:31:27;;;;;;;;;;;51.10;1.00;;;;;;5110035;28;20304;-69
2021/09/10 09:33:52;;;;;;;;;;;50.50;1.00;;;;;;5109903;28;19919;-73
2021/09/10 09:36:18;;;;;;;;;;;49.80;1.00;;;;;;5108015;28;19973;-72
2021/09/10 09:38:44;;;;;;;;;;;47.10;1.00;;;;;;5108974;28;19915;-72
2021/09/10 09:41:11;;;;;;;;;;;47.60;1.00;;;;;;5116039;28;20363;-71
2021/09/10 09:43:37;;;;;;;;;;;48.00;1.00;;;;;;5108431;28;20391;-72
2021/09/10 09:46:06;;;;;;;;;;;47.80;1.00;;;;;;5109735;28;20336;-69
2021/09/10 09:48:39;;;;;;;;;;;48.30;1.00;;;;;;5114800;28;19911;-69
2021/09/10 09:51:06;;;;;;;;;;;48.40;1.00;;;;;;5116946;28;19965;-70
2021/09/10 09:53:33;;;;;;;;;;;48.30;1.00;;;;;;5109443;28;19914;-70
2021/09/10 09:56:00;;;;;;;;;;;48.60;1.00;;;;;;5109802;28;19915;-70
2021/09/10 09:58:25;;;;;;;;;;;48.70;1.00;;;;;;5109350;28;19940;-70
2021/09/10 10:00:51;;;;;;;;;;;48.00;1.00;;;;;;5108721;28;19908;-70
2021/09/10 10:03:20;;;;;;;;;;;48.00;1.00;;;;;;5114313;28;19908;-71
2021/09/10 10:05:56;;;;;;;;;;;47.50;1.00;;;;;;5112292;28;19912;-69
2021/09/10 10:08:23;;;;;;;;;;;47.80;1.00;;;;;;5112397;28;19955;-69
2021/09/10 10:10:54;;;;;;;;;;;47.90;1.00;;;;;;5114696;28;19948;-70
2021/09/10 10:13:30;;;;;;;;;;;47.20;1.00;;;;;;5113834;28;19919;-69
2021/09/10 10:15:55;;;;;;;;;;;47.20;1.00;;;;;;5111351;28;20007;-68
2021/09/10 10:18:38;;;;;;;;;;;46.90;1.00;;;;;;5112792;28;20018;-68
2021/09/10 10:21:04;;;;;;;;;;;46.60;1.00;;;;;;5113359;28;19912;-69
2021/09/10 10:23:41;;;;;;;;;;;46.40;1.00;;;;;;5113024;28;19915;-71
2021/09/10 10:26:11;;;;;;;;;;;45.30;1.00;;;;;;5114180;28;20313;-68
2021/09/10 10:28:44;;;;;;;;;;;43.70;1.00;;;;;;5113136;28;19908;-70
2021/09/10 10:31:10;;;;;;;;;;;43.70;1.00;;;;;;5113263;28;19908;-68
2021/09/10 10:33:45;;;;;;;;;;;43.40;1.00;;;;;;5112297;28;19934;-69
2021/09/10 10:36:33;;;;;;;;;;;43.40;1.00;;;;;;5113683;28;19947;-68
2021/09/10 10:39:08;;;;;;;;;;;43.50;1.00;;;;;;5112952;28;20031;-68
2021/09/10 10:41:48;;;;;;;;;;;42.30;1.00;;;;;;5113791;28;19953;-71
2021/09/10 10:44:44;;;;;;;;;;;40.70;1.00;;;;;;5112701;28;19918;-71
2021/09/10 10:47:19;;;;;;;;;;;39.00;1.00;;;;;;5090314;28;20003;-69
2021/09/10 10:49:45;;;;;;;;;;;37.70;1.00;;;;;;5112234;28;19912;-70
2021/09/10 10:52:33;;;;;;;;;;;36.60;1.00;;;;;;5112645;28;20317;-71
2021/09/10 10:55:22;;;;;;;;;;;36.60;1.00;;;;;;5102184;28;19983;-71
2021/09/10 10:57:49;;;;;;;;;;;37.10;1.00;;;;;;5112667;28;19992;-70
2021/09/10 11:00:32;;;;;;;;;;;37.60;1.00;;;;;;5112554;28;19916;-71
2021/09/10 11:03:16;;;;;;;;;;;37.40;1.00;;;;;;5112408;28;19923;-70
2021/09/10 11:05:43;;;;;;;;;;;37.40;1.00;;;;;;5111839;28;20292;-70
2021/09/10 11:08:09;;;;;;;;;;;37.10;1.00;;;;;;5110920;28;19912;-71
2021/09/10 11:10:35;;;;;;;;;;;36.80;1.00;;;;;;5112888;28;19908;-71
2021/09/10 11:13:00;;;;;;;;;;;37.30;1.00;;;;;;5111928;28;20321;-70
2021/09/10 11:15:30;;;;;;;;;;;37.80;1.00;;;;;;5111444;28;19931;-70
2021/09/10 11:18:00;;;;;;;;;;;38.00;1.00;;;;;;5112217;28;19919;-71
2021/09/10 11:20:25;;;;;;;;;;;38.30;1.00;;;;;;5111931;28;19988;-71
2021/09/10 11:22:51;;;;;;;;;;;38.60;1.00;;;;;;5112090;28;19919;-70
2021/09/10 11:25:16;;;;;;;;;;;38.70;1.00;;;;;;5112419;28;20291;-70
2021/09/10 11:27:42;;;;;;;;;;;38.50;1.00;;;;;;5111590;28;20059;-71
2021/09/10 11:30:09;;;;;;;;;;;38.20;1.00;;;;;;5112217;28;20354;-71
2021/09/10 11:32:34;;;;;;;;;;;38.30;1.00;;;;;;5111296;28;19915;-71
2021/09/10 11:35:00;;;;;;;;;;;38.50;1.00;;;;;;5111594;28;19927;-71
2021/09/10 11:37:32;;;;;;;;;;;38.40;1.00;;;;;;5111636;28;20367;-71
2021/09/10 11:39:58;;;;;;;;;;;37.90;1.00;;;;;;5112421;28;20014;-71
2021/09/10 11:42:34;;;;;;;;;;;37.80;1.00;;;;;;5111174;28;19908;-71
2021/09/10 11:45:04;;;;;;;;;;;37.60;1.00;;;;;;5093378;28;19951;-71
2021/09/10 11:47:30;;;;;;;;;;;37.40;1.00;;;;;;5114225;27;19918;-71
2021/09/10 11:50:04;;;;;;;;;;;37.40;1.00;;;;;;5109840;28;19916;-70
2021/09/10 11:52:37;;;;;;;;;;;36.90;1.00;;;;;;5111300;28;19923;-71
2021/09/10 11:55:13;;;;;;;;;;;36.60;1.00;;;;;;5111723;28;20007;-71
2021/09/10 11:57:39;;;;;;;;;;;36.30;1.00;;;;;;5111450;28;20298;-70
2021/09/10 12:00:06;;;;;;;;;;;36.20;1.00;;;;;;5111714;28;19918;-71
2021/09/10 12:02:33;;;;;;;;;;;35.80;1.00;;;;;;5110615;28;20044;-70
2021/09/10 12:05:00;;;;;;;;;;;35.40;1.00;;;;;;5110956;28;20304;-71
2021/09/10 12:07:31;;;;;;;;;;;35.30;1.00;;;;;;5091095;28;19908;-70
2021/09/10 12:09:57;;;;;;;;;;;35.30;1.00;;;;;;5111286;28;20022;-71
2021/09/10 12:12:24;;;;;;;;;;;34.70;1.00;;;;;;5110978;28;19955;-69
2021/09/10 12:14:52;;;;;;;;;;;34.40;1.00;;;;;;5111110;28;19912;-70
2021/09/10 12:17:28;;;;;;;;;;;34.20;1.00;;;;;;5114965;28;19964;-70
2021/09/10 12:20:00;;;;;;;;;;;34.20;1.00;;;;;;5120251;28;19984;-71
2021/09/10 12:22:33;;;;;;;;;;;34.50;1.00;;;;;;5110814;28;19908;-71
2021/09/10 12:25:17;;;;;;;;;;;34.50;1.00;;;;;;5111516;28;19908;-70
2021/09/10 12:27:43;;;;;;;;;;;34.50;1.00;;;;;;5111535;28;20405;-71
2021/09/10 12:30:09;;;;;;;;;;;34.60;1.00;;;;;;5109675;28;19920;-71
2021/09/10 12:32:35;;;;;;;;;;;34.70;1.10;;;;;;5110452;28;20247;-72
2021/09/10 12:35:01;;;;;;;;;;;34.40;1.70;;;;;;5110504;28;19915;-71
2021/09/10 12:37:28;;;;;;;;;;;34.60;2.20;;;;;;5110889;28;19912;-71
2021/09/10 12:39:54;;;;;;;;;;;34.60;2.40;;;;;;5110766;28;19912;-69
2021/09/10 12:42:20;;;;;;;;;;;34.60;2.60;;;;;;5110179;28;20006;-71
2021/09/10 12:44:45;;;;;;;;;;;34.40;3.00;;;;;;5110177;28;20433;-71
2021/09/10 12:47:11;;;;;;;;;;;34.20;2.60;;;;;;5110661;28;19915;-71
2021/09/10 12:49:36;;;;;;;;;;;33.60;2.50;;;;;;5110756;28;20269;-71
2021/09/10 12:52:02;;;;;;;;;;;33.30;2.30;;;;;;5109934;28;19915;-70
2021/09/10 12:54:28;;;;;;;;;;;33.20;3.10;;;;;;5110170;28;19908;-70
2021/09/10 12:56:53;;;;;;;;;;;32.70;3.20;;;;;;5111078;28;19908;-70
2021/09/10 12:59:19;;;;;;;;;;;32.90;4.00;;;;;;5109803;28;19973;-71
2021/09/10 13:01:44;;;;;;;;;;;33.00;4.50;;;;;;5110070;28;19959;-69
2021/09/10 13:04:10;;;;;;;;;;;33.10;4.10;;;;;;5109012;28;19912;-70
2021/09/10 13:06:35;;;;;;;;;;;32.90;4.10;;;;;;5109171;28;19911;-71
2021/09/10 13:09:01;;;;;;;;;;;32.60;4.90;;;;;;5110089;28;19914;-70
2021/09/10 13:11:26;;;;;;;;;;;32.40;15.00;;;;;;5110444;28;19908;-70
2021/09/10 13:13:52;;;;;;;;;;;31.90;4.60;;;;;;5109284;28;19937;-70
2021/09/10 13:16:18;;;;;;;;;;;31.60;5.20;;;;;;5110157;28;20280;-70
2021/09/10 13:18:43;;;;;;;;;;;31.30;6.00;;;;;;5109668;28;19963;-71
2021/09/10 13:21:09;;;;;;;;;;;31.00;7.40;;;;;;5110725;28;19908;-70
2021/09/10 13:23:34;;;;;;;;;;;30.60;7.80;;;;;;5109639;28;20010;-70
2021/09/10 13:26:00;;;;;;;;;;;30.40;8.50;;;;;;5110094;28;19965;-71
2021/09/10 13:28:25;;;;;;;;;;;30.10;9.00;;;;;;5100371;28;19919;-72
2021/09/10 13:30:51;;;;;;;;;;;29.90;9.90;;;;;;5098446;28;19911;-72
2021/09/10 13:33:16;;;;;;;;;;;29.80;11.20;;;;;;5099027;28;20007;-71
2021/09/10 13:35:42;;;;;;;;;;;29.70;12.20;;;;;;5096535;28;20046;-71
2021/09/10 13:38:08;;;;;;;;;;;29.50;13.80;;;;;;5099349;28;19915;-71
2021/09/10 13:40:33;;;;;;;;;;;29.50;15.30;;;;;;5098652;28;20018;-72
2021/09/10 13:42:59;;;;;;;;;;;29.40;16.60;;;;;;5099157;28;19951;-70
2021/09/10 13:45:25;;;;;;;;;;;29.40;17.50;;;;;;5109562;28;19915;-70
2021/09/10 13:47:51;;;;;;;;;;;29.50;18.40;;;;;;5115638;27;19926;-71
2021/09/10 13:50:18;;;;;;;;;;;29.30;19.30;;;;;;5081644;28;19965;-71
2021/09/10 13:52:43;;;;;;;;;;;29.40;20.40;;;;;;5098860;28;20388;-72
2021/09/10 13:55:09;;;;;;;;;;;29.40;21.90;;;;;;5097900;28;19912;-71
2021/09/10 13:57:34;;;;;;;;;;;29.50;23.30;;;;;;5098536;28;20467;-71
2021/09/10 14:00:00;;;;;;;;;;;29.40;23.70;;;;;;5099292;28;19969;-71
2021/09/10 14:02:25;;;;;;;;;;;29.20;24.00;;;;;;5096091;28;20408;-71
2021/09/10 14:04:54;;;;;;;;;;;29.00;24.20;;;;;;5098569;28;19912;-71
2021/09/10 14:07:19;;;;;;;;;;;28.70;24.70;;;;;;5101406;28;19919;-71
2021/09/10 14:09:45;;;;;;;;;;;28.30;25.50;;;;;;5109801;28;19908;-71
2021/09/10 14:12:10;;;;;;;;;;;28.00;26.40;;;;;;5108708;28;19908;-72
2021/09/10 14:14:36;;;;;;;;;;;28.00;28.50;;;;;;5109085;28;19908;-72
2021/09/10 14:17:02;;;;;;;;;;;28.00;30.20;;;;;;5109334;28;20375;-72
2021/09/10 14:19:28;;;;;;;;;;;27.90;32.20;;;;;;5108834;28;20267;-72
2021/09/10 14:21:54;;;;;;;;;;;27.90;34.80;;;;;;5109063;28;19908;-71
2021/09/10 14:24:20;;;;;;;;;;;27.90;37.60;;;;;;5109336;28;19994;-71